Impacts TAF Board
For situational awareness. Not to be used for flight planning purposes.
IDs:

KFLL - Ft Lauderdale-Hollyw, FL, US

Issued at 0520 UTC 16 Oct 2018
Updated at 0726 UTC 16 Oct 2018
Potential Impact None Slight Moderate High
Time<<17/08Z 17/09Z 17/10Z 17/11Z 17/12Z 17/13Z 17/14Z 17/15Z 17/16Z 17/17Z 17/18Z 17/19Z 17/20Z
Type PRVL PRVL PRVL PRVL
VIS >6 >6 >6 >6
CIG -- -- -- --
Cover SCT SCT SCT SCT
FltCat VFR VFR VFR VFR
WX -- -- -- --
WDir 90 90 90 90
WSpd 11 11 11 11
WGst -- -- -- --
Raw TAF
KFLL 160520Z 1606/1712 11011KT P6SM SCT035
  FM161500 10015KT P6SM SCT025
  FM170000 09011KT P6SM SCT025


METAR Board
Radar Display
Forecast Discussion
For situational awareness. Not to be used for flight planning purposes.